< < Back
Terminal Aerodrome Forecast


Current Version              Previous Versions:   1  2  3  4  5  6  7  8  9  

Terminal Aerodrome Forecast

071
FTUS42 KFFC 310534
TAFFTY
TAF
KFTY 310534Z 3106/0106 32004KT P6SM FEW250
     FM311000 01004KT P6SM FEW250
     FM311600 04006KT P6SM SCT040
     FM010000 34003KT P6SM SCT080=

Latest METAR

872
SAUS70 KWBC 311900 RRB
MTRFTY
METAR KFTY 311853Z 00000KT 10SM SCT046 BKN060 32/21 A2995 RMK AO2 SLP131
T03220211


USA.gov is the U.S. government's official web portal to all federal, state and local government web resources and services.